Flight Track Log - Related Links

Times and Time Zones

All times are in EDT time to prevent confusion due to time zone crossing. See the LT912 flight status page for this flight to view local times or setup timezone preferences in your user account.

Time Position Orientation Groundspeed Altitude Reporting Facility
EDT Latitude Longitude Course Direction KTS MPH feet Rate Location/Type
Tue 10:50:00 PM 58.1478 -116.8037 158° South  Level FlightAware Approximate
Tue 10:51:00 PM 58.0813 -116.7519 157° South  Level FlightAware Approximate
Tue 10:52:00 PM 58.0149 -116.6995 157° South  Level FlightAware Approximate
Tue 10:53:00 PM 57.9485 -116.6473 157° South  Level FlightAware Approximate
Tue 10:54:00 PM 57.8820 -116.5953 157° South  Level FlightAware Approximate
Tue 10:55:00 PM 57.8158 -116.5426 157° South  Level FlightAware Approximate
Tue 10:56:00 PM 57.7492 -116.4915 159° South  Level FlightAware Approximate
Tue 10:57:00 PM 57.6822 -116.4424 159° South  Level FlightAware Approximate
Tue 10:58:00 PM 57.6152 -116.3934 159° South  Level FlightAware Approximate
Tue 10:59:00 PM 57.5481 -116.3446 159° South  Level FlightAware Approximate
Tue 11:00:00 PM 57.4811 -116.2960 159° South  Level FlightAware Approximate
Tue 11:00:51 PM 57.7000 -116.5333 159° South 310 357 21,000  Level Edmonton Center
Tue 11:01:00 PM 57.4140 -116.2476 159° South  Level FlightAware Approximate
Tue 11:01:51 PM 57.6333 -116.4833 158° South 290 334 21,000  Level Edmonton Center
Tue 11:02:00 PM 57.3469 -116.1993 159° South  Level FlightAware Approximate
Tue 11:02:51 PM 57.5500 -116.4167 157° South 290 334 21,000  Level Edmonton Center
Tue 11:03:00 PM 57.2798 -116.1513 159° South  Level FlightAware Approximate
Tue 11:03:51 PM 57.4833 -116.3667 158° South 290 334 21,000  Level Edmonton Center
Tue 11:04:00 PM 57.2127 -116.1034 159° South  Level FlightAware Approximate
Tue 11:04:51 PM 57.4000 -116.3167 162° South 280 322 21,000  Level Edmonton Center
Tue 11:05:00 PM 57.1456 -116.0557 159° South  Level FlightAware Approximate
Tue 11:05:51 PM 57.3333 -116.2500 152° Southeast 290 334 21,000  Level Edmonton Center
Tue 11:06:00 PM 57.0784 -116.0081 159° South  Level FlightAware Approximate
Tue 11:06:51 PM 57.2667 -116.2000 158° South 290 334 21,000  Level Edmonton Center
Tue 11:07:51 PM 57.1833 -116.1500 162° South 290 334 21,000  Level Edmonton Center
Tue 11:08:51 PM 57.1167 -116.1000 158° South 280 322 21,000  Level Edmonton Center
Tue 11:09:51 PM 57.0333 -116.0333 156° South 290 334 21,000  Level Edmonton Center
Tue 11:10:51 PM 56.9500 -115.9833 162° South 280 322 21,000  Level Edmonton Center
Tue 11:11:51 PM 56.9000 -115.9333 151° Southeast 280 322 21,000  Level Edmonton Center
Tue 11:12:51 PM 56.8167 -115.8667 156° South 280 322 21,000  Level Edmonton Center
Tue 11:13:51 PM 56.7500 -115.8167 158° South 280 322 21,000  Level Edmonton Center
Tue 11:14:51 PM 56.6667 -115.7667 162° South 280 322 21,000  Level Edmonton Center
Tue 11:15:51 PM 56.5833 -115.7167 162° South 290 334 21,000  Level Edmonton Center
Tue 11:16:51 PM 56.5167 -115.6667 158° South 280 322 21,000  Level Edmonton Center
Tue 11:17:51 PM 56.4500 -115.6167 157° South 290 334 21,000  Level Edmonton Center
Tue 11:18:51 PM 56.3667 -115.5500 156° South 300 345 21,000  Level Edmonton Center
Tue 11:19:51 PM 56.3000 -115.5000 157° South 280 322 21,000  Level Edmonton Center
Tue 11:20:51 PM 56.2167 -115.4500 162° South 280 322 21,000  Level Edmonton Center
Tue 11:21:51 PM 56.1333 -115.4000 162° South 280 322 21,000  Level Edmonton Center
Tue 11:22:51 PM 56.0500 -115.3500 156° South 280 322 21,000  Level Edmonton Center
Tue 11:23:00 PM 56.0575 -115.3404 156° South  Level FlightAware Approximate
Tue 11:23:51 PM 55.9833 -115.3000 157° South 280 322 21,000  Level Edmonton Center
Tue 11:24:51 PM 55.9333 -115.2500 151° Southeast 280 322 21,000  Level Edmonton Center
Tue 11:25:51 PM 55.8500 -115.2000 161° South 280 322 21,000  Level Edmonton Center
Tue 11:26:51 PM 55.7667 -115.1500 161° South 280 322 21,000  Level Edmonton Center
Tue 11:27:51 PM 55.7000 -115.1000 157° South 290 334 21,000  Level Edmonton Center
Tue 11:28:51 PM 55.6167 -115.0500 161° South 290 334 21,000  Level Edmonton Center
Tue 11:29:51 PM 55.5333 -115.0000 161° South 290 334 21,000 -50 Level Edmonton Center
Tue 11:30:51 PM 55.4667 -114.9500 157° South 290 334 20,900 -50 Descending Edmonton Center
Tue 11:31:51 PM 55.3833 -114.9167 167° South 290 334 20,900  Level Edmonton Center
Tue 11:32:51 PM 55.3167 -114.8500 150° Southeast 290 334 20,900 50 Level Edmonton Center
Tue 11:33:51 PM 55.2333 -114.8000 161° South 290 334 21,000 50 Climbing Edmonton Center
Tue 11:34:51 PM 55.1667 -114.7500 157° South 290 334 21,000  Level Edmonton Center
Tue 11:35:51 PM 55.0833 -114.7000 161° South 290 334 21,000  Level Edmonton Center
Tue 11:36:51 PM 55.0000 -114.6667 167° South 290 334 21,000  Level Edmonton Center
Tue 11:37:51 PM 54.9333 -114.6333 164° South 290 334 21,000  Level Edmonton Center
Tue 11:38:51 PM 54.8500 -114.5833 161° South 290 334 21,000  Level Edmonton Center
Tue 11:39:51 PM 54.7833 -114.5000 144° Southeast 290 334 21,000  Level Edmonton Center
Tue 11:40:51 PM 54.7000 -114.4500 161° South 290 334 21,000  Level Edmonton Center
Tue 11:41:51 PM 54.6333 -114.4000 157° South 290 334 21,000  Level Edmonton Center
Tue 11:42:51 PM 54.5500 -114.3500 161° South 290 334 21,000  Level Edmonton Center
Tue 11:43:51 PM 54.4667 -114.3000 161° South 290 334 21,000  Level Edmonton Center
Tue 11:44:51 PM 54.3833 -114.2667 167° South 290 334 21,000 -150 Level Edmonton Center
Tue 11:45:51 PM 54.3000 -114.2167 161° South 290 334 20,700 -700 Descending Edmonton Center
Tue 11:46:51 PM 54.2333 -114.1667 156° South 310 357 19,600 -1,200 Descending Edmonton Center
Tue 11:47:51 PM 54.1333 -114.1167 164° South 320 368 18,300 -1,300 Descending Edmonton Center
Tue 11:48:51 PM 54.0667 -114.0667 156° South 320 368 17,000 -1,438 Descending Edmonton Center
Tue 11:50:00 PM 53.9894 -114.0161 157° South  Level Estimated
Tue 11:55:51 PM 53.5333 -113.6667 158° South 270 311 6,800  Level Edmonton Center
Tue 11:56:51 PM 53.4667 -113.6167 156° South 240 276 6,300 -250 Descending Edmonton Center
Tue 11:57:00 PM 53.5157 -113.6956 162° South  Level FlightAware Approximate
Tue 11:57:51 PM 53.4167 -113.5833 158° South 200 230 6,300  Level Edmonton Center
Tue 11:58:00 PM 53.4473 -113.6578 162° South  Level FlightAware Approximate
Tue 11:59:00 PM 53.3804 -113.6152 163° South  Level FlightAware Approximate
Tue 11:59:00 PM 53.3297 -113.5864 158° South  Level FlightAware Approximate
Tue 11:59:51 PM 53.3167 -113.4667 158° South 180 207 5,900  Level Edmonton Center
Wed 12:00:00 AM 53.3126 -113.5751 158° South  Level FlightAware Approximate
Wed 12:00:51 AM 53.2667 -113.4333 158° South 180 207 4,700  Level Edmonton Center
Wed 12:01:00 AM 53.3097 -113.5797 158° South  Level Estimated
Wed 12:01:51 AM 53.2500 -113.4833 241° Southwest 140 161 3,700  Level Edmonton Center
Wed 12:02:51 AM 53.2333 -113.5333 241° Southwest 130 150 3,100 -600 Descending Edmonton Center
Wed 12:03:51 AM 53.2667 -113.5833 318° Northwest 120 138 2,500 -600 Descending Edmonton Center

Login

Don't have an account? Register now (free) for customized features, flight alerts, and more!